Aeroporto :
LOGIN :

Iscrizione | Disclaimer

   EN    FR    IT 

 










Sommario :    VFR   VFR Marginale   IFR   IFR Intensivo   IFR Molto Intensivo
Visibilità : 
Base nubi : 
>= 8 km
>= 3000ft
5 / 8 km
1000 / 3000 ft
1500m / 5 km
500 / 1000 ft
800 / 1500m
200 / 500 ft
< 800m
< 200 ft
Simboli :   Temporali  Nebbia  Neve Forte  Precipitazioni Forti  Vento > 20 kt
SIGMETs :   Varie  Temporali  Ghiacco  Turbolenza  Onda orograficha  Ceneri Vulcaniche






- Altitudine del aeroporto : 267 ft


EGDR - Culdrose Navy

ULTIMO METAR :
  • 240950Z 29008KT 9999 FEW010 SCT025 12/07 Q1018 TEMPO SCT020 RMK BLU TEMPO WHT

METARs OBSOLETI :
  • 240920Z 32007KT 9999 FEW010 SCT020 BKN040 11/07 Q1018 NOSIG RMK WHT WHT
  • 240850Z 33006KT 9999 FEW010 SCT020 BKN040 11/07 Q1019 NOSIG RMK WHT WHT
  • 240820Z 31005KT 9999 FEW010 BKN040 11/07 Q1019 TEMPO SCT020 RMK BLU TEMPO WHT
  • 240750Z 32005KT 9999 FEW010 BKN040 10/07 Q1019 TEMPO SCT020 RMK BLU TEMPO WHT
  • 240720Z 33004KT 9999 FEW020 BKN040 09/07 Q1019 TEMPO SCT020 RMK BLU TEMPO WHT
  • 240650Z 33003KT 9999 FEW020 BKN040 09/08 Q1019 TEMPO SCT020 RMK BLU TEMPO WHT
  • 240620Z 33002KT 9999 FEW010 SCT045 08/08 Q1019 TEMPO SCT020 RMK BLU TEMPO WHT
  • 240550Z 33004KT 9999 FEW010 SCT045 07/07 Q1019 TEMPO SCT020 RMK BLU TEMPO WHT
  • 240520Z AUTO 32005KT 9999 FEW034/// 07/07 Q1019
  • 240450Z AUTO 32005KT 9999 NCD 08/07 Q1020

TAF TAF EGDR
Valido dal 24 a 09 ore il 24 a 18 ore UTC


240742Z 2409/2418 35010KT 9999 FEW020 SCT025
TEMPO 2409/2413 SCT020
PROB30
TEMPO 2409/2413 6000 -SHRA FEW014 SCT020



MetMap, La meteo Aeronautica in un colpo d'occhio ! - Copyright ORBIFLY Dicembre 2007 - Disclaimer

ORBIFLY MET'MAP TEAM :

Programmazione e sviluppo : Alexandra Zaïnal
Concezione : Baudouin d'Aumeries
Supporto tecnico e logistico : Manuel Goepfert
Aiuto : Marc-Olivier Méhu
Aiuto per la traduzione : Arnaldo La Scala




FONTI E CREDITI :

   NOAA